Aviation Digital Data Service (ADDS)

Output produced by METARs form (0358 UTC 25 March 2017)
found at http://www.aviationweather.gov/adds/metars/
 
KROW 250351Z AUTO 03007KT 10SM CLR 12/M03 RMK AO2 SLPNO T01221028 $
KROW 250251Z AUTO 06008KT 10SM CLR 13/M02 RMK AO2 SLPNO T01331022 $
KROW 250151Z 05011KT 10SM CLR 16/M02 RMK AO2 SLPNO T01611022 $
KROW 250051Z 04011KT 10SM CLR 19/M02 A3002 RMK AO2 SLP124 T01891022 $
KROW 242351Z 04013KT 10SM FEW120 21/M03 RMK AO2 SLPNO T02111028 10244 20211 $
KROW 242251Z 03014KT 10SM FEW120 23/M02 RMK AO2 SLPNO T02281017 $
KROW 242151Z 02016KT 10SM OVC100 22/M02 A2996 RMK AO2 SLP101 T02171022 $
KROW 242051Z 02019G25KT 10SM OVC100 22/M02 A2994 RMK AO2 PK WND 33034/2015 SLP093 T02221022 55006 $
KROW 241951Z 33021G31KT 10SM BKN100 23/M04 A2993 RMK AO2 PK WND 33034/1939 SLP088 T02281044 $
KROW 241851Z 32021G27KT 10SM BKN095 23/M03 A2996 RMK AO2 PK WND 28040/1828 SLP097 T02281033 $
KROW 241751Z 32026G37KT 10SM CLR 21/M03 A2996 RMK AO2 PK WND 30039/1705 SLP099 T02111033 10211 20094 51030 $
KROW 241651Z 31027G42KT 10SM CLR 19/M03 A2995 RMK AO2 PK WND 33045/1609 SLP097 T01891033 $
KROW 241551Z 30022G28KT 10SM FEW100 18/M04 A2988 RMK AO2 PK WND 28035/1540 SLP068 T01831039 $
KROW 241451Z 27021G30KT 10SM BKN085 14/M04 A2986 RMK AO2 PK WND 28032/1430 SLP070 T01441044 $
KROW 241351Z 25012KT 10SM CLR 13/M04 RMK AO2 SLPNO T01281044 $
KROW 241251Z 23013KT 10SM CLR 10/M05 A2982 RMK AO2 SLP056 T01001050 $
KROW 241151Z 24015KT 10SM CLR 11/M06 A2982 RMK AO2 SLP051 T01061056 10122 20094 $
KROW 241051Z AUTO 25018G27KT 10SM CLR 11/M06 RMK AO2 PK WND 26028/1028 SLPNO T01061056 $
KROW 240951Z AUTO 27011KT 10SM CLR 11/M07 RMK AO2 PK WND 24027/0934 SLPNO T01061067 $
KROW 240851Z AUTO 22007KT 10SM CLR 09/M07 RMK AO2 SLPNO T00941072 $
KROW 240751Z AUTO 24015KT 10SM CLR 10/M07 RMK AO2 SLPNO T01001072 $
KROW 240651Z AUTO 25017KT 10SM CLR 11/M07 RMK AO2 SLPNO T01111072 403280111 $
KROW 240551Z AUTO 26019G27KT 10SM CLR 12/M07 RMK AO2 PK WND 25030/0501 SLPNO T01221072 10211 20122 $
KROW 240451Z AUTO 25021G30KT 10SM CLR 13/M08 RMK AO2 PK WND 25035/0423 SLPNO T01331078 $
KROW 242334Z 2500/2524 03014KT P6SM SKC 
     FM250300 VRB05KT P6SM SKC 
     FM252000 18015G25KT P6SM SCT250